sensor_id;sensor_type;location;lat;lon;timestamp;P1;durP1;ratioP1;P2;durP2;ratioP2
58516;SDS011;44308;50.810;0.284;2022-10-31T00:02:14;14.98;;;4.80;;
58516;SDS011;44308;50.810;0.284;2022-10-31T00:04:41;16.48;;;4.18;;
58516;SDS011;44308;50.810;0.284;2022-10-31T00:07:07;28.30;;;4.10;;
58516;SDS011;44308;50.810;0.284;2022-10-31T00:09:32;17.73;;;4.80;;
58516;SDS011;44308;50.810;0.284;2022-10-31T00:11:58;19.83;;;4.55;;
58516;SDS011;44308;50.810;0.284;2022-10-31T00:14:23;21.50;;;4.40;;
58516;SDS011;44308;50.810;0.284;2022-10-31T00:16:49;24.30;;;4.80;;
58516;SDS011;44308;50.810;0.284;2022-10-31T00:19:15;26.55;;;4.90;;
58516;SDS011;44308;50.810;0.284;2022-10-31T00:21:41;25.35;;;4.40;;
58516;SDS011;44308;50.810;0.284;2022-10-31T00:24:07;14.80;;;4.00;;
58516;SDS011;44308;50.810;0.284;2022-10-31T00:26:32;16.00;;;4.47;;
58516;SDS011;44308;50.810;0.284;2022-10-31T00:29:01;17.33;;;4.88;;
58516;SDS011;44308;50.810;0.284;2022-10-31T00:31:26;21.77;;;4.72;;
58516;SDS011;44308;50.810;0.284;2022-10-31T00:33:52;23.08;;;4.90;;
58516;SDS011;44308;50.810;0.284;2022-10-31T00:36:19;23.60;;;4.28;;
58516;SDS011;44308;50.810;0.284;2022-10-31T00:38:46;14.52;;;4.03;;
58516;SDS011;44308;50.810;0.284;2022-10-31T00:41:13;20.88;;;4.05;;
58516;SDS011;44308;50.810;0.284;2022-10-31T00:43:41;13.48;;;3.83;;
58516;SDS011;44308;50.810;0.284;2022-10-31T00:46:10;31.33;;;5.47;;
58516;SDS011;44308;50.810;0.284;2022-10-31T00:48:36;12.82;;;3.55;;
58516;SDS011;44308;50.810;0.284;2022-10-31T00:51:02;24.15;;;4.22;;
58516;SDS011;44308;50.810;0.284;2022-10-31T00:53:28;16.33;;;4.28;;
58516;SDS011;44308;50.810;0.284;2022-10-31T00:55:54;17.90;;;3.90;;
58516;SDS011;44308;50.810;0.284;2022-10-31T00:58:19;12.25;;;3.65;;
58516;SDS011;44308;50.810;0.284;2022-10-31T01:00:46;16.77;;;4.15;;
58516;SDS011;44308;50.810;0.284;2022-10-31T01:03:20;23.27;;;4.95;;
58516;SDS011;44308;50.810;0.284;2022-10-31T01:05:54;26.33;;;4.13;;
58516;SDS011;44308;50.810;0.284;2022-10-31T01:08:24;29.27;;;4.15;;
58516;SDS011;44308;50.810;0.284;2022-10-31T01:11:04;19.33;;;3.65;;
58516;SDS011;44308;50.810;0.284;2022-10-31T01:13:30;18.45;;;4.05;;
58516;SDS011;44308;50.810;0.284;2022-10-31T01:15:57;18.73;;;4.95;;
58516;SDS011;44308;50.810;0.284;2022-10-31T01:18:24;24.58;;;3.78;;
58516;SDS011;44308;50.810;0.284;2022-10-31T01:20:59;19.08;;;5.15;;
58516;SDS011;44308;50.810;0.284;2022-10-31T01:23:26;21.08;;;5.00;;
58516;SDS011;44308;50.810;0.284;2022-10-31T01:26:03;12.23;;;4.05;;
58516;SDS011;44308;50.810;0.284;2022-10-31T01:28:33;24.15;;;5.03;;
58516;SDS011;44308;50.810;0.284;2022-10-31T01:31:01;20.73;;;4.78;;
58516;SDS011;44308;50.810;0.284;2022-10-31T01:33:31;29.25;;;4.30;;
58516;SDS011;44308;50.810;0.284;2022-10-31T01:35:57;27.20;;;4.32;;
58516;SDS011;44308;50.810;0.284;2022-10-31T01:38:23;25.85;;;4.68;;
58516;SDS011;44308;50.810;0.284;2022-10-31T01:40:49;37.72;;;4.47;;
58516;SDS011;44308;50.810;0.284;2022-10-31T01:43:15;16.98;;;4.22;;
58516;SDS011;44308;50.810;0.284;2022-10-31T01:45:41;19.85;;;3.90;;
58516;SDS011;44308;50.810;0.284;2022-10-31T01:48:16;18.40;;;4.68;;
58516;SDS011;44308;50.810;0.284;2022-10-31T01:50:46;30.75;;;4.68;;
58516;SDS011;44308;50.810;0.284;2022-10-31T01:53:16;29.65;;;4.50;;
58516;SDS011;44308;50.810;0.284;2022-10-31T01:59:24;15.38;;;4.90;;
58516;SDS011;44308;50.810;0.284;2022-10-31T02:01:54;18.40;;;4.28;;
58516;SDS011;44308;50.810;0.284;2022-10-31T02:04:20;25.02;;;4.32;;
58516;SDS011;44308;50.810;0.284;2022-10-31T02:09:23;16.80;;;3.95;;
58516;SDS011;44308;50.810;0.284;2022-10-31T02:11:54;25.65;;;4.40;;
58516;SDS011;44308;50.810;0.284;2022-10-31T02:14:22;18.65;;;4.75;;
58516;SDS011;44308;50.810;0.284;2022-10-31T02:16:50;18.45;;;4.10;;
58516;SDS011;44308;50.810;0.284;2022-10-31T02:19:18;17.23;;;4.18;;
58516;SDS011;44308;50.810;0.284;2022-10-31T02:21:56;23.63;;;5.05;;
58516;SDS011;44308;50.810;0.284;2022-10-31T02:29:54;17.30;;;4.18;;
58516;SDS011;44308;50.810;0.284;2022-10-31T02:43:59;20.15;;;5.28;;
58516;SDS011;44308;50.810;0.284;2022-10-31T02:46:40;15.70;;;4.85;;
58516;SDS011;44308;50.810;0.284;2022-10-31T02:49:27;14.85;;;4.05;;
58516;SDS011;44308;50.810;0.284;2022-10-31T02:54:47;26.25;;;4.72;;
58516;SDS011;44308;50.810;0.284;2022-10-31T02:57:13;19.60;;;4.28;;
58516;SDS011;44308;50.810;0.284;2022-10-31T02:59:43;16.08;;;4.10;;
58516;SDS011;44308;50.810;0.284;2022-10-31T03:02:18;23.90;;;4.70;;
58516;SDS011;44308;50.810;0.284;2022-10-31T03:12:59;20.23;;;4.32;;
58516;SDS011;44308;50.810;0.284;2022-10-31T03:15:37;25.67;;;4.63;;
58516;SDS011;44308;50.810;0.284;2022-10-31T03:18:32;25.10;;;4.10;;
58516;SDS011;44308;50.810;0.284;2022-10-31T03:21:07;18.98;;;4.03;;
58516;SDS011;44308;50.810;0.284;2022-10-31T03:23:40;20.20;;;4.57;;
58516;SDS011;44308;50.810;0.284;2022-10-31T03:26:11;19.65;;;5.13;;
58516;SDS011;44308;50.810;0.284;2022-10-31T03:28:48;17.70;;;4.30;;
58516;SDS011;44308;50.810;0.284;2022-10-31T03:31:15;21.83;;;3.78;;
58516;SDS011;44308;50.810;0.284;2022-10-31T03:33:43;21.38;;;4.63;;
58516;SDS011;44308;50.810;0.284;2022-10-31T03:36:13;18.77;;;3.83;;
58516;SDS011;44308;50.810;0.284;2022-10-31T03:38:41;20.80;;;4.55;;
58516;SDS011;44308;50.810;0.284;2022-10-31T03:41:10;13.18;;;3.65;;
58516;SDS011;44308;50.810;0.284;2022-10-31T03:43:41;16.20;;;4.03;;
58516;SDS011;44308;50.810;0.284;2022-10-31T03:46:09;18.98;;;4.00;;
58516;SDS011;44308;50.810;0.284;2022-10-31T03:48:35;27.08;;;4.40;;
58516;SDS011;44308;50.810;0.284;2022-10-31T03:51:06;21.13;;;3.65;;
58516;SDS011;44308;50.810;0.284;2022-10-31T03:56:22;20.80;;;3.90;;
58516;SDS011;44308;50.810;0.284;2022-10-31T03:59:10;26.50;;;5.07;;
58516;SDS011;44308;50.810;0.284;2022-10-31T04:01:43;20.17;;;4.20;;
58516;SDS011;44308;50.810;0.284;2022-10-31T04:04:12;28.67;;;4.55;;
58516;SDS011;44308;50.810;0.284;2022-10-31T04:06:39;26.80;;;4.53;;
58516;SDS011;44308;50.810;0.284;2022-10-31T04:09:08;17.42;;;4.32;;
58516;SDS011;44308;50.810;0.284;2022-10-31T04:11:36;16.42;;;4.22;;
58516;SDS011;44308;50.810;0.284;2022-10-31T04:17:09;11.63;;;3.58;;
58516;SDS011;44308;50.810;0.284;2022-10-31T04:19:38;19.88;;;4.22;;
58516;SDS011;44308;50.810;0.284;2022-10-31T04:22:06;14.35;;;3.67;;
58516;SDS011;44308;50.810;0.284;2022-10-31T04:24:33;12.50;;;3.85;;
58516;SDS011;44308;50.810;0.284;2022-10-31T04:26:58;15.88;;;4.18;;
58516;SDS011;44308;50.810;0.284;2022-10-31T04:29:24;25.42;;;3.95;;
58516;SDS011;44308;50.810;0.284;2022-10-31T04:31:49;15.70;;;3.53;;
58516;SDS011;44308;50.810;0.284;2022-10-31T04:34:18;25.70;;;4.95;;
58516;SDS011;44308;50.810;0.284;2022-10-31T04:36:45;20.88;;;3.92;;
58516;SDS011;44308;50.810;0.284;2022-10-31T04:39:11;13.85;;;3.58;;
58516;SDS011;44308;50.810;0.284;2022-10-31T04:41:36;19.45;;;3.97;;
58516;SDS011;44308;50.810;0.284;2022-10-31T04:44:02;14.15;;;3.90;;
58516;SDS011;44308;50.810;0.284;2022-10-31T04:46:29;20.45;;;4.25;;
58516;SDS011;44308;50.810;0.284;2022-10-31T04:48:55;16.38;;;4.55;;
58516;SDS011;44308;50.810;0.284;2022-10-31T04:51:21;32.70;;;4.82;;
58516;SDS011;44308;50.810;0.284;2022-10-31T04:53:47;20.90;;;4.30;;
58516;SDS011;44308;50.810;0.284;2022-10-31T04:56:14;20.23;;;4.20;;
58516;SDS011;44308;50.810;0.284;2022-10-31T04:58:40;17.50;;;4.00;;
58516;SDS011;44308;50.810;0.284;2022-10-31T05:01:05;21.92;;;3.92;;
58516;SDS011;44308;50.810;0.284;2022-10-31T05:03:31;20.27;;;3.78;;
58516;SDS011;44308;50.810;0.284;2022-10-31T05:05:57;9.25;;;3.17;;
58516;SDS011;44308;50.810;0.284;2022-10-31T05:08:22;13.30;;;3.53;;
58516;SDS011;44308;50.810;0.284;2022-10-31T05:10:48;11.50;;;3.92;;
58516;SDS011;44308;50.810;0.284;2022-10-31T05:13:14;20.92;;;4.13;;
58516;SDS011;44308;50.810;0.284;2022-10-31T05:15:41;15.23;;;3.65;;
58516;SDS011;44308;50.810;0.284;2022-10-31T05:18:07;21.63;;;4.18;;
58516;SDS011;44308;50.810;0.284;2022-10-31T05:20:33;13.32;;;3.70;;
58516;SDS011;44308;50.810;0.284;2022-10-31T05:22:59;20.85;;;3.92;;
58516;SDS011;44308;50.810;0.284;2022-10-31T05:25:27;13.38;;;4.03;;
58516;SDS011;44308;50.810;0.284;2022-10-31T05:27:54;17.83;;;4.13;;
58516;SDS011;44308;50.810;0.284;2022-10-31T05:30:21;21.83;;;4.05;;
58516;SDS011;44308;50.810;0.284;2022-10-31T05:32:50;20.20;;;4.07;;
58516;SDS011;44308;50.810;0.284;2022-10-31T05:35:17;24.40;;;3.90;;
58516;SDS011;44308;50.810;0.284;2022-10-31T05:37:48;17.30;;;3.30;;
58516;SDS011;44308;50.810;0.284;2022-10-31T05:40:14;9.05;;;3.13;;
58516;SDS011;44308;50.810;0.284;2022-10-31T05:42:41;32.20;;;3.83;;
58516;SDS011;44308;50.810;0.284;2022-10-31T05:45:13;26.55;;;4.30;;
58516;SDS011;44308;50.810;0.284;2022-10-31T05:47:41;20.45;;;4.00;;
58516;SDS011;44308;50.810;0.284;2022-10-31T05:50:07;25.27;;;4.32;;
58516;SDS011;44308;50.810;0.284;2022-10-31T05:52:34;20.10;;;3.70;;
58516;SDS011;44308;50.810;0.284;2022-10-31T05:55:02;18.48;;;3.83;;
58516;SDS011;44308;50.810;0.284;2022-10-31T05:57:28;22.77;;;4.15;;
58516;SDS011;44308;50.810;0.284;2022-10-31T05:59:54;25.90;;;4.70;;
58516;SDS011;44308;50.810;0.284;2022-10-31T06:02:20;16.85;;;3.83;;
58516;SDS011;44308;50.810;0.284;2022-10-31T06:04:46;14.32;;;3.38;;
58516;SDS011;44308;50.810;0.284;2022-10-31T06:07:12;18.48;;;3.67;;
58516;SDS011;44308;50.810;0.284;2022-10-31T06:09:38;8.90;;;2.90;;
58516;SDS011;44308;50.810;0.284;2022-10-31T06:12:04;24.30;;;4.70;;
58516;SDS011;44308;50.810;0.284;2022-10-31T06:14:32;19.63;;;3.90;;
58516;SDS011;44308;50.810;0.284;2022-10-31T06:16:58;19.05;;;3.80;;
58516;SDS011;44308;50.810;0.284;2022-10-31T06:19:23;20.77;;;3.97;;
58516;SDS011;44308;50.810;0.284;2022-10-31T06:21:49;16.65;;;3.95;;
58516;SDS011;44308;50.810;0.284;2022-10-31T06:24:15;21.17;;;3.53;;
58516;SDS011;44308;50.810;0.284;2022-10-31T06:26:41;16.90;;;4.05;;
58516;SDS011;44308;50.810;0.284;2022-10-31T06:29:06;17.02;;;4.00;;
58516;SDS011;44308;50.810;0.284;2022-10-31T06:31:32;22.67;;;4.40;;
58516;SDS011;44308;50.810;0.284;2022-10-31T06:33:58;16.30;;;4.25;;
58516;SDS011;44308;50.810;0.284;2022-10-31T06:40:17;24.13;;;4.27;;
58516;SDS011;44308;50.810;0.284;2022-10-31T06:42:43;18.52;;;4.00;;
58516;SDS011;44308;50.810;0.284;2022-10-31T06:45:09;15.02;;;3.55;;
58516;SDS011;44308;50.810;0.284;2022-10-31T06:47:35;22.35;;;3.72;;
58516;SDS011;44308;50.810;0.284;2022-10-31T06:50:00;20.55;;;4.78;;
58516;SDS011;44308;50.810;0.284;2022-10-31T06:52:26;21.00;;;4.53;;
58516;SDS011;44308;50.810;0.284;2022-10-31T06:54:53;19.55;;;3.90;;
58516;SDS011;44308;50.810;0.284;2022-10-31T06:57:19;11.57;;;3.75;;
58516;SDS011;44308;50.810;0.284;2022-10-31T06:59:44;19.42;;;4.53;;
58516;SDS011;44308;50.810;0.284;2022-10-31T07:02:10;23.60;;;4.40;;
58516;SDS011;44308;50.810;0.284;2022-10-31T07:07:21;32.63;;;4.80;;
58516;SDS011;44308;50.810;0.284;2022-10-31T07:09:46;28.58;;;4.88;;
58516;SDS011;44308;50.810;0.284;2022-10-31T07:12:12;21.08;;;4.75;;
58516;SDS011;44308;50.810;0.284;2022-10-31T07:14:40;22.63;;;4.05;;
58516;SDS011;44308;50.810;0.284;2022-10-31T07:17:15;20.33;;;4.55;;
58516;SDS011;44308;50.810;0.284;2022-10-31T07:19:41;11.68;;;3.13;;
58516;SDS011;44308;50.810;0.284;2022-10-31T07:22:07;11.65;;;3.50;;
58516;SDS011;44308;50.810;0.284;2022-10-31T07:24:32;21.08;;;4.57;;
58516;SDS011;44308;50.810;0.284;2022-10-31T07:26:58;13.40;;;3.95;;
58516;SDS011;44308;50.810;0.284;2022-10-31T07:29:23;15.32;;;3.88;;
58516;SDS011;44308;50.810;0.284;2022-10-31T07:31:49;17.83;;;4.38;;
58516;SDS011;44308;50.810;0.284;2022-10-31T07:34:15;15.77;;;3.80;;
58516;SDS011;44308;50.810;0.284;2022-10-31T07:36:41;23.50;;;4.80;;
58516;SDS011;44308;50.810;0.284;2022-10-31T07:39:06;17.20;;;3.75;;
58516;SDS011;44308;50.810;0.284;2022-10-31T07:41:32;24.42;;;4.10;;
58516;SDS011;44308;50.810;0.284;2022-10-31T07:43:58;24.45;;;4.50;;
58516;SDS011;44308;50.810;0.284;2022-10-31T07:46:24;17.00;;;4.20;;
58516;SDS011;44308;50.810;0.284;2022-10-31T07:48:49;11.23;;;3.08;;
58516;SDS011;44308;50.810;0.284;2022-10-31T07:51:15;13.65;;;3.33;;
58516;SDS011;44308;50.810;0.284;2022-10-31T07:53:41;15.73;;;3.45;;
58516;SDS011;44308;50.810;0.284;2022-10-31T07:56:08;10.80;;;3.38;;
58516;SDS011;44308;50.810;0.284;2022-10-31T07:58:34;15.65;;;4.00;;
58516;SDS011;44308;50.810;0.284;2022-10-31T08:00:59;16.05;;;3.17;;
58516;SDS011;44308;50.810;0.284;2022-10-31T08:03:25;16.52;;;3.72;;
58516;SDS011;44308;50.810;0.284;2022-10-31T08:05:53;14.43;;;3.45;;
58516;SDS011;44308;50.810;0.284;2022-10-31T08:08:18;14.43;;;3.67;;
58516;SDS011;44308;50.810;0.284;2022-10-31T08:10:44;16.02;;;4.35;;
58516;SDS011;44308;50.810;0.284;2022-10-31T08:13:11;13.00;;;3.35;;
58516;SDS011;44308;50.810;0.284;2022-10-31T08:15:38;12.38;;;3.55;;
58516;SDS011;44308;50.810;0.284;2022-10-31T08:18:06;14.65;;;3.10;;
58516;SDS011;44308;50.810;0.284;2022-10-31T08:20:38;11.50;;;3.88;;
58516;SDS011;44308;50.810;0.284;2022-10-31T08:23:05;11.27;;;3.65;;
58516;SDS011;44308;50.810;0.284;2022-10-31T08:25:31;12.32;;;3.58;;
58516;SDS011;44308;50.810;0.284;2022-10-31T08:27:58;16.30;;;3.33;;
58516;SDS011;44308;50.810;0.284;2022-10-31T08:30:25;17.02;;;3.42;;
58516;SDS011;44308;50.810;0.284;2022-10-31T08:33:09;9.13;;;2.20;;
58516;SDS011;44308;50.810;0.284;2022-10-31T08:35:40;16.48;;;3.97;;
58516;SDS011;44308;50.810;0.284;2022-10-31T08:38:06;11.90;;;3.05;;
58516;SDS011;44308;50.810;0.284;2022-10-31T08:40:33;14.20;;;3.25;;
58516;SDS011;44308;50.810;0.284;2022-10-31T08:43:04;13.02;;;3.20;;
58516;SDS011;44308;50.810;0.284;2022-10-31T08:45:32;17.57;;;3.17;;
58516;SDS011;44308;50.810;0.284;2022-10-31T08:48:00;9.27;;;2.78;;
58516;SDS011;44308;50.810;0.284;2022-10-31T08:50:29;27.30;;;3.90;;
58516;SDS011;44308;50.810;0.284;2022-10-31T08:53:03;9.70;;;2.85;;
58516;SDS011;44308;50.810;0.284;2022-10-31T08:55:32;18.05;;;3.42;;
58516;SDS011;44308;50.810;0.284;2022-10-31T08:58:00;13.30;;;3.22;;
58516;SDS011;44308;50.810;0.284;2022-10-31T09:00:26;8.77;;;3.22;;
58516;SDS011;44308;50.810;0.284;2022-10-31T09:02:56;15.27;;;3.13;;
58516;SDS011;44308;50.810;0.284;2022-10-31T09:05:22;13.50;;;2.95;;
58516;SDS011;44308;50.810;0.284;2022-10-31T09:07:48;11.85;;;3.17;;
58516;SDS011;44308;50.810;0.284;2022-10-31T09:10:14;10.70;;;3.15;;
58516;SDS011;44308;50.810;0.284;2022-10-31T09:12:39;11.30;;;2.80;;
58516;SDS011;44308;50.810;0.284;2022-10-31T09:15:06;8.90;;;3.00;;
58516;SDS011;44308;50.810;0.284;2022-10-31T09:17:33;8.07;;;2.58;;
58516;SDS011;44308;50.810;0.284;2022-10-31T09:19:58;14.65;;;2.88;;
58516;SDS011;44308;50.810;0.284;2022-10-31T09:22:24;5.72;;;2.60;;
58516;SDS011;44308;50.810;0.284;2022-10-31T09:24:51;7.68;;;2.55;;
58516;SDS011;44308;50.810;0.284;2022-10-31T09:27:16;10.98;;;3.55;;
58516;SDS011;44308;50.810;0.284;2022-10-31T09:29:42;15.35;;;3.13;;
58516;SDS011;44308;50.810;0.284;2022-10-31T09:32:07;10.70;;;2.63;;
58516;SDS011;44308;50.810;0.284;2022-10-31T09:34:33;5.28;;;2.22;;
58516;SDS011;44308;50.810;0.284;2022-10-31T09:36:59;6.05;;;2.22;;
58516;SDS011;44308;50.810;0.284;2022-10-31T09:39:24;12.65;;;3.00;;
58516;SDS011;44308;50.810;0.284;2022-10-31T09:42:00;9.13;;;2.38;;
58516;SDS011;44308;50.810;0.284;2022-10-31T09:44:58;6.18;;;1.95;;
58516;SDS011;44308;50.810;0.284;2022-10-31T09:50:17;7.10;;;2.50;;
58516;SDS011;44308;50.810;0.284;2022-10-31T09:53:19;13.98;;;2.60;;
58516;SDS011;44308;50.810;0.284;2022-10-31T09:56:05;11.02;;;2.55;;
58516;SDS011;44308;50.810;0.284;2022-10-31T09:58:52;3.17;;;1.40;;
58516;SDS011;44308;50.810;0.284;2022-10-31T10:09:46;5.03;;;1.75;;
58516;SDS011;44308;50.810;0.284;2022-10-31T10:12:15;10.73;;;2.30;;
58516;SDS011;44308;50.810;0.284;2022-10-31T10:15:16;9.07;;;2.13;;
58516;SDS011;44308;50.810;0.284;2022-10-31T10:23:39;9.00;;;2.13;;
58516;SDS011;44308;50.810;0.284;2022-10-31T10:26:21;8.95;;;2.40;;
58516;SDS011;44308;50.810;0.284;2022-10-31T10:31:54;6.40;;;2.65;;
58516;SDS011;44308;50.810;0.284;2022-10-31T10:34:27;8.85;;;2.15;;
58516;SDS011;44308;50.810;0.284;2022-10-31T10:37:11;7.07;;;1.90;;
58516;SDS011;44308;50.810;0.284;2022-10-31T10:39:46;8.23;;;2.33;;
58516;SDS011;44308;50.810;0.284;2022-10-31T10:42:17;12.73;;;2.45;;
58516;SDS011;44308;50.810;0.284;2022-10-31T10:45:23;5.50;;;1.92;;
58516;SDS011;44308;50.810;0.284;2022-10-31T10:48:10;4.65;;;1.67;;
58516;SDS011;44308;50.810;0.284;2022-10-31T10:50:43;8.40;;;2.35;;
58516;SDS011;44308;50.810;0.284;2022-10-31T10:53:21;9.38;;;2.03;;
58516;SDS011;44308;50.810;0.284;2022-10-31T10:56:11;6.35;;;1.80;;
58516;SDS011;44308;50.810;0.284;2022-10-31T10:58:42;6.85;;;1.83;;
58516;SDS011;44308;50.810;0.284;2022-10-31T11:01:10;13.25;;;2.35;;
58516;SDS011;44308;50.810;0.284;2022-10-31T11:03:38;11.18;;;2.08;;
58516;SDS011;44308;50.810;0.284;2022-10-31T11:06:15;6.97;;;2.13;;
58516;SDS011;44308;50.810;0.284;2022-10-31T11:08:42;5.63;;;2.03;;
58516;SDS011;44308;50.810;0.284;2022-10-31T11:13:57;7.68;;;2.08;;
58516;SDS011;44308;50.810;0.284;2022-10-31T11:16:40;11.43;;;2.45;;
58516;SDS011;44308;50.810;0.284;2022-10-31T11:21:46;12.43;;;2.72;;
58516;SDS011;44308;50.810;0.284;2022-10-31T11:24:21;8.80;;;3.58;;
58516;SDS011;44308;50.810;0.284;2022-10-31T11:27:03;7.00;;;2.42;;
58516;SDS011;44308;50.810;0.284;2022-10-31T11:29:44;12.10;;;3.42;;
58516;SDS011;44308;50.810;0.284;2022-10-31T11:32:28;9.70;;;2.70;;
58516;SDS011;44308;50.810;0.284;2022-10-31T11:34:56;5.35;;;2.05;;
58516;SDS011;44308;50.810;0.284;2022-10-31T11:37:25;11.60;;;3.08;;
58516;SDS011;44308;50.810;0.284;2022-10-31T11:39:57;8.57;;;2.75;;
58516;SDS011;44308;50.810;0.284;2022-10-31T11:42:25;9.65;;;2.75;;
58516;SDS011;44308;50.810;0.284;2022-10-31T11:44:53;5.45;;;2.53;;
58516;SDS011;44308;50.810;0.284;2022-10-31T11:47:23;7.38;;;2.70;;
58516;SDS011;44308;50.810;0.284;2022-10-31T11:49:51;12.65;;;3.05;;
58516;SDS011;44308;50.810;0.284;2022-10-31T11:52:25;16.50;;;3.92;;
58516;SDS011;44308;50.810;0.284;2022-10-31T11:54:55;9.93;;;2.97;;
58516;SDS011;44308;50.810;0.284;2022-10-31T11:57:29;11.73;;;3.00;;
58516;SDS011;44308;50.810;0.284;2022-10-31T11:59:58;5.63;;;1.90;;
58516;SDS011;44308;50.810;0.284;2022-10-31T12:02:25;7.72;;;1.98;;
58516;SDS011;44308;50.810;0.284;2022-10-31T12:05:07;4.80;;;2.47;;
58516;SDS011;44308;50.810;0.284;2022-10-31T12:07:34;6.70;;;2.65;;
58516;SDS011;44308;50.810;0.284;2022-10-31T12:10:00;6.88;;;2.50;;
58516;SDS011;44308;50.810;0.284;2022-10-31T12:12:30;16.77;;;2.85;;
58516;SDS011;44308;50.810;0.284;2022-10-31T12:26:33;9.30;;;2.10;;
58516;SDS011;44308;50.810;0.284;2022-10-31T12:43:29;7.68;;;2.13;;
58516;SDS011;44308;50.810;0.284;2022-10-31T12:46:25;6.55;;;2.08;;
58516;SDS011;44308;50.810;0.284;2022-10-31T12:49:09;5.05;;;2.47;;
58516;SDS011;44308;50.810;0.284;2022-10-31T12:51:49;5.97;;;2.58;;
58516;SDS011;44308;50.810;0.284;2022-10-31T12:59:57;9.27;;;2.33;;
58516;SDS011;44308;50.810;0.284;2022-10-31T13:02:56;22.80;;;3.53;;
58516;SDS011;44308;50.810;0.284;2022-10-31T13:08:12;10.00;;;1.98;;
58516;SDS011;44308;50.810;0.284;2022-10-31T13:13:45;10.15;;;2.47;;
58516;SDS011;44308;50.810;0.284;2022-10-31T13:16:22;7.85;;;2.78;;
58516;SDS011;44308;50.810;0.284;2022-10-31T13:21:23;11.60;;;3.42;;
58516;SDS011;44308;50.810;0.284;2022-10-31T13:23:55;12.68;;;2.78;;
58516;SDS011;44308;50.810;0.284;2022-10-31T13:31:41;12.15;;;3.25;;
58516;SDS011;44308;50.810;0.284;2022-10-31T13:34:18;5.20;;;2.75;;
58516;SDS011;44308;50.810;0.284;2022-10-31T13:41:52;12.63;;;3.10;;
58516;SDS011;44308;50.810;0.284;2022-10-31T13:44:25;8.52;;;2.67;;
58516;SDS011;44308;50.810;0.284;2022-10-31T13:46:53;5.45;;;2.40;;
58516;SDS011;44308;50.810;0.284;2022-10-31T13:54:36;7.55;;;2.63;;
58516;SDS011;44308;50.810;0.284;2022-10-31T13:57:07;7.57;;;2.95;;
58516;SDS011;44308;50.810;0.284;2022-10-31T13:59:47;8.15;;;2.88;;
58516;SDS011;44308;50.810;0.284;2022-10-31T14:02:17;6.38;;;3.03;;
58516;SDS011;44308;50.810;0.284;2022-10-31T14:04:51;8.55;;;3.60;;
58516;SDS011;44308;50.810;0.284;2022-10-31T14:07:21;11.00;;;3.50;;
58516;SDS011;44308;50.810;0.284;2022-10-31T14:10:04;12.98;;;4.05;;
58516;SDS011;44308;50.810;0.284;2022-10-31T14:12:46;5.07;;;3.15;;
58516;SDS011;44308;50.810;0.284;2022-10-31T14:17:51;11.07;;;4.65;;
58516;SDS011;44308;50.810;0.284;2022-10-31T14:20:31;28.70;;;5.65;;
58516;SDS011;44308;50.810;0.284;2022-10-31T14:25:50;13.73;;;5.88;;
58516;SDS011;44308;50.810;0.284;2022-10-31T14:28:20;8.82;;;5.13;;
58516;SDS011;44308;50.810;0.284;2022-10-31T14:30:57;14.43;;;4.65;;
58516;SDS011;44308;50.810;0.284;2022-10-31T14:33:25;8.48;;;4.07;;
58516;SDS011;44308;50.810;0.284;2022-10-31T14:36:01;9.13;;;4.97;;
58516;SDS011;44308;50.810;0.284;2022-10-31T14:52:56;13.25;;;5.78;;
58516;SDS011;44308;50.810;0.284;2022-10-31T14:55:25;16.35;;;5.53;;
58516;SDS011;44308;50.810;0.284;2022-10-31T14:58:01;8.20;;;5.55;;
58516;SDS011;44308;50.810;0.284;2022-10-31T15:00:32;16.38;;;5.57;;
58516;SDS011;44308;50.810;0.284;2022-10-31T15:05:25;12.73;;;5.55;;
58516;SDS011;44308;50.810;0.284;2022-10-31T15:07:53;22.05;;;13.70;;
58516;SDS011;44308;50.810;0.284;2022-10-31T15:12:48;24.17;;;18.10;;
58516;SDS011;44308;50.810;0.284;2022-10-31T15:15:16;17.15;;;5.82;;
58516;SDS011;44308;50.810;0.284;2022-10-31T15:17:54;14.27;;;8.20;;
58516;SDS011;44308;50.810;0.284;2022-10-31T15:20:23;23.25;;;7.07;;
58516;SDS011;44308;50.810;0.284;2022-10-31T15:22:53;17.27;;;10.90;;
58516;SDS011;44308;50.810;0.284;2022-10-31T15:25:22;28.75;;;15.88;;
58516;SDS011;44308;50.810;0.284;2022-10-31T15:27:50;24.00;;;15.23;;
58516;SDS011;44308;50.810;0.284;2022-10-31T15:30:21;46.92;;;34.13;;
58516;SDS011;44308;50.810;0.284;2022-10-31T15:32:51;20.70;;;11.90;;
58516;SDS011;44308;50.810;0.284;2022-10-31T15:35:28;26.58;;;14.13;;
58516;SDS011;44308;50.810;0.284;2022-10-31T15:37:55;21.70;;;11.73;;
58516;SDS011;44308;50.810;0.284;2022-10-31T15:40:25;16.00;;;8.30;;
58516;SDS011;44308;50.810;0.284;2022-10-31T15:42:53;21.52;;;8.50;;
58516;SDS011;44308;50.810;0.284;2022-10-31T15:45:26;22.25;;;9.57;;
58516;SDS011;44308;50.810;0.284;2022-10-31T15:47:57;33.80;;;17.23;;
58516;SDS011;44308;50.810;0.284;2022-10-31T15:50:28;29.25;;;12.05;;
58516;SDS011;44308;50.810;0.284;2022-10-31T15:52:57;41.63;;;12.88;;
58516;SDS011;44308;50.810;0.284;2022-10-31T15:55:26;15.90;;;10.02;;
58516;SDS011;44308;50.810;0.284;2022-10-31T15:57:59;22.45;;;10.75;;
58516;SDS011;44308;50.810;0.284;2022-10-31T16:00:35;40.08;;;19.42;;
58516;SDS011;44308;50.810;0.284;2022-10-31T16:13:39;23.10;;;14.65;;
58516;SDS011;44308;50.810;0.284;2022-10-31T16:16:17;22.83;;;10.95;;
58516;SDS011;44308;50.810;0.284;2022-10-31T16:18:45;29.92;;;12.82;;
58516;SDS011;44308;50.810;0.284;2022-10-31T16:21:11;35.22;;;17.85;;
58516;SDS011;44308;50.810;0.284;2022-10-31T16:23:38;34.45;;;14.82;;
58516;SDS011;44308;50.810;0.284;2022-10-31T16:26:09;29.98;;;15.95;;
58516;SDS011;44308;50.810;0.284;2022-10-31T16:28:39;24.45;;;15.93;;
58516;SDS011;44308;50.810;0.284;2022-10-31T16:31:15;38.17;;;14.57;;
58516;SDS011;44308;50.810;0.284;2022-10-31T16:33:41;27.73;;;13.88;;
58516;SDS011;44308;50.810;0.284;2022-10-31T16:38:59;28.30;;;14.75;;
58516;SDS011;44308;50.810;0.284;2022-10-31T16:41:25;29.15;;;17.08;;
58516;SDS011;44308;50.810;0.284;2022-10-31T16:43:51;36.80;;;23.17;;
58516;SDS011;44308;50.810;0.284;2022-10-31T16:46:21;36.92;;;18.50;;
58516;SDS011;44308;50.810;0.284;2022-10-31T16:48:49;51.53;;;20.17;;
58516;SDS011;44308;50.810;0.284;2022-10-31T16:51:15;43.33;;;21.83;;
58516;SDS011;44308;50.810;0.284;2022-10-31T16:53:41;38.90;;;25.60;;
58516;SDS011;44308;50.810;0.284;2022-10-31T16:56:12;41.97;;;20.02;;
58516;SDS011;44308;50.810;0.284;2022-10-31T16:58:47;38.33;;;19.02;;
58516;SDS011;44308;50.810;0.284;2022-10-31T17:01:13;31.88;;;21.55;;
58516;SDS011;44308;50.810;0.284;2022-10-31T17:03:39;38.70;;;23.10;;
58516;SDS011;44308;50.810;0.284;2022-10-31T17:06:05;137.50;;;66.75;;
58516;SDS011;44308;50.810;0.284;2022-10-31T17:08:30;102.95;;;62.58;;
58516;SDS011;44308;50.810;0.284;2022-10-31T17:10:57;124.13;;;74.05;;
58516;SDS011;44308;50.810;0.284;2022-10-31T17:13:27;54.75;;;29.65;;
58516;SDS011;44308;50.810;0.284;2022-10-31T17:15:56;57.53;;;26.67;;
58516;SDS011;44308;50.810;0.284;2022-10-31T17:18:23;66.10;;;37.30;;
58516;SDS011;44308;50.810;0.284;2022-10-31T17:20:49;60.25;;;29.88;;
58516;SDS011;44308;50.810;0.284;2022-10-31T17:23:19;66.40;;;38.92;;
58516;SDS011;44308;50.810;0.284;2022-10-31T17:25:45;56.20;;;31.13;;
58516;SDS011;44308;50.810;0.284;2022-10-31T17:28:12;60.25;;;38.22;;
58516;SDS011;44308;50.810;0.284;2022-10-31T17:30:39;57.88;;;30.42;;
58516;SDS011;44308;50.810;0.284;2022-10-31T17:33:06;70.10;;;42.45;;
58516;SDS011;44308;50.810;0.284;2022-10-31T17:35:35;46.90;;;26.20;;
58516;SDS011;44308;50.810;0.284;2022-10-31T17:38:01;41.00;;;20.90;;